createdAt,value
2023-04-18T00:01:08.222Z,100274.53
2023-04-18T00:04:48.121Z,100283.53
2023-04-18T00:08:22.384Z,100285.13
2023-04-18T00:15:55.575Z,100284.00
2023-04-18T00:19:50.147Z,100291.16
2023-04-18T00:23:15.394Z,100280.34
2023-04-18T00:26:42.696Z,100289.62
2023-04-18T00:30:34.917Z,100286.94
2023-04-18T00:34:08.913Z,100287.44
2023-04-18T00:37:15.228Z,100289.75
2023-04-18T00:40:17.843Z,100287.13
2023-04-18T00:44:02.044Z,100286.88
2023-04-18T00:47:19.924Z,100291.87
2023-04-18T00:50:38.245Z,100290.59
2023-04-18T00:54:09.131Z,100284.47
2023-04-18T00:57:54.297Z,100289.50
2023-04-18T01:01:03.295Z,100283.19
2023-04-18T01:04:24.133Z,100273.84
2023-04-18T01:07:36.006Z,100278.09
2023-04-18T01:10:54.645Z,100285.22
2023-04-18T01:14:22.243Z,100283.06
2023-04-18T01:17:38.003Z,100292.91
2023-04-18T01:20:53.242Z,100290.28
2023-04-18T01:24:38.064Z,100285.47
2023-04-18T01:28:06.934Z,100286.81
2023-04-18T01:31:41.594Z,100285.72
2023-04-18T01:35:07.289Z,100281.44
2023-04-18T01:42:37.488Z,100280.06
2023-04-18T01:45:56.872Z,100282.69
2023-04-18T01:49:30.103Z,100278.94
2023-04-18T01:53:24.838Z,100277.91
2023-04-18T01:57:04.467Z,100285.84
2023-04-18T02:00:31.068Z,100286.66
2023-04-18T02:04:03.614Z,100280.28
2023-04-18T02:07:22.215Z,100275.25
2023-04-18T02:10:52.442Z,100287.97
2023-04-18T02:14:10.877Z,100290.03
2023-04-18T02:17:54.147Z,100290.03
2023-04-18T02:21:27.052Z,100290.59
2023-04-18T02:24:51.620Z,100287.66
2023-04-18T02:28:13.756Z,100291.44
2023-04-18T02:31:22.831Z,100290.12
2023-04-18T02:39:03.951Z,100296.53
2023-04-18T02:42:08.126Z,100309.53
2023-04-18T02:45:58.242Z,100313.50
2023-04-18T02:49:44.695Z,100313.44
2023-04-18T02:53:20.090Z,100310.69
2023-04-18T02:57:02.208Z,100311.69
2023-04-18T03:26:43.118Z,100317.66
2023-04-18T03:30:21.485Z,100314.50
2023-04-18T03:34:06.489Z,100315.59
2023-04-18T03:37:43.999Z,100317.66
2023-04-18T03:41:12.371Z,100311.56
2023-04-18T03:44:55.993Z,100315.59
2023-04-18T03:48:23.575Z,100314.56
2023-04-18T04:02:57.613Z,100324.38
2023-04-18T04:06:35.043Z,100328.37
2023-04-18T04:13:50.203Z,100327.50
2023-04-18T04:20:50.169Z,100328.13
2023-04-18T04:24:29.526Z,100339.56
2023-04-18T04:28:01.998Z,100344.53
2023-04-18T04:31:30.254Z,100339.66
2023-04-18T04:35:01.302Z,100349.69
2023-04-18T04:38:40.428Z,100342.56
2023-04-18T04:42:30.395Z,100355.56
2023-04-18T04:46:00.163Z,100359.25
2023-04-18T04:49:36.532Z,100359.47
2023-04-18T04:53:27.182Z,100363.53
2023-04-18T04:57:04.774Z,100363.53
2023-04-18T05:00:24.056Z,100369.59
2023-04-18T05:04:04.121Z,100371.78
2023-04-18T05:08:32.710Z,100373.63
2023-04-18T05:12:11.514Z,100370.41
2023-04-18T05:15:56.917Z,100380.94
2023-04-18T05:19:27.716Z,100375.66
2023-04-18T05:22:48.846Z,100376.72
2023-04-18T05:26:34.931Z,100381.28
2023-04-18T05:30:49.033Z,100379.63
2023-04-18T05:34:30.403Z,100386.81
2023-04-18T05:38:10.258Z,100384.22
2023-04-18T05:41:50.927Z,100377.41
2023-04-18T05:45:22.098Z,100380.72
2023-04-18T05:48:58.307Z,100386.47
2023-04-18T05:52:16.990Z,100382.63
2023-04-18T05:55:50.820Z,100393.31
2023-04-18T05:59:30.048Z,100393.94
2023-04-18T06:02:53.118Z,100399.87
2023-04-18T06:06:23.055Z,100396.72
2023-04-18T06:09:26.942Z,100397.59
2023-04-18T06:12:31.848Z,100403.47
2023-04-18T06:15:36.836Z,100398.00
2023-04-18T06:18:43.250Z,100402.28
2023-04-18T06:22:18.665Z,100406.03
2023-04-18T06:25:24.584Z,100405.56
2023-04-18T06:28:27.994Z,100405.56
2023-04-18T06:31:33.450Z,100404.56
2023-04-18T06:34:40.966Z,100406.69
2023-04-18T06:37:44.913Z,100410.44
2023-04-18T06:40:50.279Z,100407.25
2023-04-18T06:44:13.273Z,100415.47
2023-04-18T06:47:16.785Z,100417.38
2023-04-18T06:50:19.951Z,100411.47
2023-04-18T06:53:24.903Z,100405.03
2023-04-18T06:56:30.258Z,100419.91
2023-04-18T06:59:33.091Z,100417.50
2023-04-18T07:02:41.508Z,100425.44
2023-04-18T07:05:45.307Z,100417.19
2023-04-18T07:08:53.311Z,100433.16
2023-04-18T07:12:17.277Z,100434.44
2023-04-18T07:15:21.228Z,100426.19
2023-04-18T07:18:36.699Z,100430.09
2023-04-18T07:22:01.032Z,100425.81
2023-04-18T07:25:05.325Z,100422.63
2023-04-18T07:28:10.770Z,100430.22
2023-04-18T07:31:38.876Z,100427.09
2023-04-18T07:34:42.918Z,100431.81
2023-04-18T07:37:47.931Z,100430.72
2023-04-18T07:41:01.428Z,100436.91
2023-04-18T07:44:07.374Z,100438.53
2023-04-18T07:47:11.198Z,100435.91
2023-04-18T07:50:14.333Z,100442.34
2023-04-18T07:53:19.495Z,100443.47
2023-04-18T07:56:43.786Z,100441.78
2023-04-18T07:59:53.786Z,100455.06
2023-04-18T08:03:17.099Z,100448.97
2023-04-18T08:06:21.290Z,100452.81
2023-04-18T08:09:52.794Z,100449.19
2023-04-18T08:13:18.431Z,100452.84
2023-04-18T08:16:43.388Z,100454.22
2023-04-18T08:20:07.282Z,100447.84
2023-04-18T08:23:13.522Z,100446.81
2023-04-18T08:26:49.611Z,100450.72
2023-04-18T08:29:53.313Z,100447.66
2023-04-18T08:32:57.951Z,100451.28
2023-04-18T08:36:25.174Z,100448.53
2023-04-18T08:39:28.226Z,100450.81
2023-04-18T08:42:35.460Z,100455.59
2023-04-18T08:45:38.790Z,100458.56
2023-04-18T08:48:49.510Z,100457.69
2023-04-18T08:51:54.209Z,100457.37
2023-04-18T08:54:59.725Z,100453.69
2023-04-18T08:58:28.014Z,100458.31
2023-04-18T09:01:54.317Z,100453.38
2023-04-18T09:04:59.886Z,100451.44
2023-04-18T09:08:24.914Z,100449.97
2023-04-18T09:11:31.898Z,100448.22
2023-04-18T09:14:43.216Z,100444.78
2023-04-18T09:18:10.571Z,100447.19
2023-04-18T09:25:43.572Z,100448.97
2023-04-18T09:28:53.985Z,100444.94
2023-04-18T09:32:02.196Z,100448.03
2023-04-18T09:35:06.521Z,100441.91
2023-04-18T09:38:10.109Z,100443.50
2023-04-18T09:41:16.835Z,100452.16
2023-04-18T09:44:22.351Z,100449.88
2023-04-18T09:47:27.846Z,100447.06
2023-04-18T09:50:32.783Z,100448.44
2023-04-18T09:53:44.661Z,100443.72
2023-04-18T09:56:54.365Z,100445.28
2023-04-18T10:00:14.407Z,100440.81
2023-04-18T10:03:45.391Z,100443.84
2023-04-18T10:06:49.062Z,100443.00
2023-04-18T10:09:56.513Z,100451.00
2023-04-18T10:13:01.735Z,100435.97
2023-04-18T10:16:07.646Z,100447.44
2023-04-18T10:19:26.368Z,100442.97
2023-04-18T10:22:52.733Z,100445.09
2023-04-18T10:26:06.975Z,100438.97
2023-04-18T10:29:10.338Z,100433.50
2023-04-18T10:32:48.756Z,100440.81
2023-04-18T10:36:08.005Z,100439.91
2023-04-18T10:39:22.541Z,100444.84
2023-04-18T10:42:52.855Z,100435.78
2023-04-18T10:46:24.288Z,100442.94
2023-04-18T10:49:56.210Z,100434.16
2023-04-18T10:53:07.608Z,100437.78
2023-04-18T10:56:14.607Z,100434.44
2023-04-18T10:59:22.732Z,100427.66
2023-04-18T11:02:25.957Z,100433.91
2023-04-18T11:05:37.338Z,100436.13
2023-04-18T11:08:45.147Z,100429.94
2023-04-18T11:12:06.575Z,100428.50
2023-04-18T11:15:11.431Z,100425.66
2023-04-18T11:18:48.026Z,100434.84
2023-04-18T11:21:52.161Z,100441.13
2023-04-18T11:25:08.484Z,100435.31
2023-04-18T11:28:13.726Z,100429.75
2023-04-18T11:31:39.783Z,100449.03
2023-04-18T11:34:43.360Z,100431.78
2023-04-18T11:38:01.516Z,100430.22
2023-04-18T11:41:13.053Z,100424.72
2023-04-18T11:44:23.436Z,100429.34
2023-04-18T11:47:46.968Z,100429.19
2023-04-18T11:50:51.316Z,100434.97
2023-04-18T11:53:55.085Z,100428.81
2023-04-18T11:57:25.791Z,100425.06
2023-04-18T12:00:52.652Z,100423.28
2023-04-18T12:04:19.097Z,100414.09
2023-04-18T12:07:34.642Z,100430.88
2023-04-18T12:11:04.293Z,100421.69
2023-04-18T12:14:08.499Z,100423.47
2023-04-18T12:17:20.534Z,100424.72
2023-04-18T12:20:37.941Z,100417.91
2023-04-18T12:24:13.963Z,100423.16
2023-04-18T12:27:17.811Z,100421.88
2023-04-18T12:30:28.119Z,100420.16
2023-04-18T12:33:51.675Z,100420.97
2023-04-18T12:36:57.047Z,100419.06
2023-04-18T12:40:04.824Z,100418.09
2023-04-18T12:43:31.936Z,100411.56
2023-04-18T12:46:55.077Z,100419.34
2023-04-18T12:50:22.173Z,100412.22
2023-04-18T12:53:26.315Z,100413.63
2023-04-18T12:56:46.566Z,100406.66
2023-04-18T13:00:15.086Z,100409.63
2023-04-18T13:04:11.703Z,100412.84
2023-04-18T13:07:21.194Z,100409.19
2023-04-18T13:10:47.832Z,100410.28
2023-04-18T13:14:17.450Z,100406.16
2023-04-18T13:17:44.585Z,100415.00
2023-04-18T13:20:53.020Z,100404.62
2023-04-18T13:24:17.820Z,100424.03
2023-04-18T13:27:21.574Z,100420.47
2023-04-18T13:30:41.666Z,100415.97
2023-04-18T13:34:13.806Z,100420.03
2023-04-18T13:37:31.544Z,100424.78
2023-04-18T13:41:12.748Z,100426.87
2023-04-18T13:44:30.140Z,100420.19
2023-04-18T13:47:54.494Z,100423.94
2023-04-18T13:51:25.097Z,100420.28
2023-04-18T13:54:33.098Z,100418.88
2023-04-18T13:57:54.607Z,100422.78
2023-04-18T14:01:38.523Z,100418.62
2023-04-18T14:05:03.713Z,100429.16
2023-04-18T14:08:10.034Z,100417.03
2023-04-18T14:11:21.945Z,100414.16
2023-04-18T14:14:58.935Z,100423.75
2023-04-18T14:18:39.826Z,100415.44
2023-04-18T14:22:15.133Z,100420.81
2023-04-18T14:25:30.127Z,100421.00
2023-04-18T14:28:50.532Z,100416.31
2023-04-18T14:32:18.233Z,100411.56
2023-04-18T14:35:37.202Z,100418.38
2023-04-18T14:39:40.407Z,100405.44
2023-04-18T14:43:04.335Z,100407.38
2023-04-18T14:46:32.025Z,100409.03
2023-04-18T14:49:35.315Z,100413.06
2023-04-18T14:52:41.930Z,100406.91
2023-04-18T14:55:47.427Z,100411.25
2023-04-18T14:58:50.767Z,100420.31
2023-04-18T15:01:55.781Z,100412.53
2023-04-18T15:05:28.075Z,100417.13
2023-04-18T15:08:52.710Z,100417.75
2023-04-18T15:12:16.575Z,100404.75
2023-04-18T15:15:22.874Z,100412.91
2023-04-18T15:18:29.660Z,100417.41
2023-04-18T15:21:39.430Z,100414.28
2023-04-18T15:24:48.098Z,100414.16
2023-04-18T15:28:24.461Z,100419.72
2023-04-18T15:32:37.018Z,100419.72
2023-04-18T15:36:13.229Z,100415.94
2023-04-18T15:39:50.131Z,100412.88
2023-04-18T15:43:07.037Z,100422.25
2023-04-18T15:46:26.460Z,100412.38
2023-04-18T15:50:01.331Z,100424.69
2023-04-18T15:53:41.886Z,100421.66
2023-04-18T15:57:13.242Z,100424.97
2023-04-18T16:00:40.060Z,100429.12
2023-04-18T16:04:14.275Z,100424.75
2023-04-18T16:07:31.337Z,100425.94
2023-04-18T16:11:15.216Z,100421.19
2023-04-18T16:14:41.267Z,100428.62
2023-04-18T16:18:07.057Z,100429.63
2023-04-18T16:21:23.947Z,100435.56
2023-04-18T16:24:43.325Z,100436.06
2023-04-18T16:28:10.608Z,100440.81
2023-04-18T16:31:30.233Z,100443.41
2023-04-18T16:34:47.266Z,100436.63
2023-04-18T16:38:08.883Z,100441.25
2023-04-18T16:41:35.326Z,100444.31
2023-04-18T16:45:01.996Z,100450.00
2023-04-18T16:48:19.690Z,100446.25
2023-04-18T16:51:53.162Z,100446.28
2023-04-18T16:55:18.637Z,100445.56
2023-04-18T16:59:01.638Z,100452.38
2023-04-18T17:02:40.376Z,100450.00
2023-04-18T17:07:11.221Z,100452.94
2023-04-18T17:15:02.125Z,100448.06
2023-04-18T17:18:43.337Z,100448.97
2023-04-18T17:22:27.317Z,100455.47
2023-04-18T17:26:09.519Z,100459.56
2023-04-18T17:29:41.031Z,100449.84
2023-04-18T17:33:16.861Z,100448.91
2023-04-18T17:37:06.384Z,100455.47
2023-04-18T17:40:59.925Z,100459.53
2023-04-18T17:44:43.208Z,100463.44
2023-04-18T17:48:06.121Z,100465.41
2023-04-18T17:51:52.333Z,100468.19
2023-04-18T17:55:15.020Z,100475.72
2023-04-18T17:58:55.957Z,100478.41
2023-04-18T18:02:32.115Z,100478.19
2023-04-18T18:10:10.111Z,100481.16
2023-04-18T18:13:47.178Z,100494.47
2023-04-18T18:17:15.806Z,100496.34
2023-04-18T18:20:48.094Z,100499.22
2023-04-18T18:24:14.277Z,100496.84
2023-04-18T18:27:37.715Z,100494.37
2023-04-18T18:31:11.898Z,100504.97
2023-04-18T18:35:06.226Z,100502.03
2023-04-18T18:38:44.131Z,100505.72
2023-04-18T18:42:14.381Z,100507.03
2023-04-18T18:46:12.635Z,100508.59
2023-04-18T18:49:51.650Z,100502.75
2023-04-18T18:53:31.841Z,100512.84
2023-04-18T18:56:51.903Z,100509.16
2023-04-18T19:00:21.310Z,100517.12
2023-04-18T19:03:41.207Z,100519.25
2023-04-18T19:07:01.087Z,100522.22
2023-04-18T19:10:27.466Z,100529.41
2023-04-18T19:14:08.212Z,100537.41
2023-04-18T19:17:25.164Z,100557.22
2023-04-18T19:20:51.721Z,100558.06
2023-04-18T19:24:25.763Z,100558.84
2023-04-18T19:27:40.087Z,100556.72
2023-04-18T19:31:09.843Z,100546.09
2023-04-18T19:34:37.729Z,100552.47
2023-04-18T19:38:01.765Z,100552.72
2023-04-18T19:41:41.799Z,100556.72
2023-04-18T19:45:01.616Z,100561.47
2023-04-18T19:48:31.959Z,100564.94
2023-04-18T19:51:52.603Z,100562.53
2023-04-18T19:55:27.798Z,100570.03
2023-04-18T19:58:58.178Z,100566.28
2023-04-18T20:02:20.358Z,100566.81
2023-04-18T20:05:41.035Z,100573.19
2023-04-18T20:09:17.475Z,100571.59
2023-04-18T20:12:56.694Z,100579.06
2023-04-18T20:16:15.777Z,100579.31
2023-04-18T20:19:50.104Z,100578.28
2023-04-18T20:23:07.472Z,100575.87
2023-04-18T20:26:32.986Z,100583.06
2023-04-18T20:30:05.333Z,100580.16
2023-04-18T20:33:38.595Z,100577.75
2023-04-18T20:37:20.123Z,100580.66
2023-04-18T20:40:45.064Z,100588.66
2023-04-18T20:44:10.691Z,100591.06
2023-04-18T20:47:47.891Z,100597.19
2023-04-18T20:51:07.663Z,100586.78
2023-04-18T20:54:49.780Z,100584.88
2023-04-18T20:58:26.270Z,100574.25
2023-04-18T21:02:02.595Z,100570.25
2023-04-18T21:05:33.344Z,100581.12
2023-04-18T21:08:50.774Z,100580.06
2023-04-18T21:12:23.509Z,100571.53
2023-04-18T21:15:52.650Z,100573.63
2023-04-18T21:19:29.822Z,100566.44
2023-04-18T21:22:57.093Z,100566.37
2023-04-18T21:26:14.331Z,100570.06
2023-04-18T21:29:48.637Z,100569.78
2023-04-18T21:33:06.063Z,100565.00
2023-04-18T21:36:24.327Z,100570.03
2023-04-18T21:39:58.533Z,100563.38
2023-04-18T21:43:15.712Z,100557.03
2023-04-18T21:46:48.378Z,100565.78
2023-04-18T21:50:16.009Z,100562.87
2023-04-18T21:53:43.180Z,100564.41
2023-04-18T21:57:19.382Z,100564.19
2023-04-18T22:00:50.378Z,100558.13
2023-04-18T22:04:09.344Z,100557.81
2023-04-18T22:07:30.656Z,100551.69
2023-04-18T22:10:50.546Z,100555.16
2023-04-18T22:14:21.019Z,100558.59
2023-04-18T22:17:38.266Z,100547.97
2023-04-18T22:21:15.081Z,100551.72
2023-04-18T22:24:37.068Z,100550.66
2023-04-18T22:27:54.156Z,100541.59
2023-04-18T22:31:30.332Z,100542.97
2023-04-18T22:35:05.777Z,100543.22
2023-04-18T22:38:35.590Z,100540.84
2023-04-18T22:42:02.780Z,100537.41
2023-04-18T22:45:41.012Z,100536.28
2023-04-18T22:48:55.584Z,100538.97
2023-04-18T22:52:40.362Z,100533.66
2023-04-18T22:55:59.978Z,100528.84
2023-04-18T22:59:33.997Z,100520.62
2023-04-18T23:03:01.515Z,100513.94
2023-04-18T23:06:32.573Z,100505.97
2023-04-18T23:09:59.683Z,100507.09
2023-04-18T23:13:28.952Z,100508.16
2023-04-18T23:17:06.106Z,100500.66
2023-04-18T23:20:42.142Z,100496.72
2023-04-18T23:24:17.107Z,100503.88
2023-04-18T23:27:51.608Z,100489.00
2023-04-18T23:31:25.027Z,100490.59
2023-04-18T23:34:51.832Z,100484.25
2023-04-18T23:38:28.734Z,100481.28
2023-04-18T23:42:02.371Z,100478.38
2023-04-18T23:45:32.374Z,100468.03
2023-04-18T23:49:02.103Z,100468.56
2023-04-18T23:52:19.090Z,100464.56
2023-04-18T23:55:53.829Z,100458.22
2023-04-18T23:59:14.899Z,100454.47
